createdAt,value
2024-01-09T00:00:37.135Z,51.00
2024-01-09T00:01:37.131Z,51.00
2024-01-09T00:02:37.175Z,50.95
2024-01-09T00:03:37.196Z,50.95
2024-01-09T00:04:37.271Z,50.93
2024-01-09T00:05:37.381Z,50.91
2024-01-09T00:06:37.309Z,50.93
2024-01-09T00:07:37.294Z,50.89
2024-01-09T00:08:37.367Z,50.87
2024-01-09T00:09:37.342Z,50.87
2024-01-09T00:10:37.370Z,50.92
2024-01-09T00:11:37.410Z,50.88
2024-01-09T00:12:37.414Z,50.89
2024-01-09T00:13:37.439Z,50.88
2024-01-09T00:14:38.384Z,50.88
2024-01-09T00:15:37.494Z,50.86
2024-01-09T00:16:37.534Z,50.82
2024-01-09T00:17:37.593Z,50.83
2024-01-09T00:18:37.738Z,50.82
2024-01-09T00:19:37.622Z,50.81
2024-01-09T00:20:37.628Z,50.80
2024-01-09T00:21:37.652Z,50.82
2024-01-09T00:22:37.664Z,50.84
2024-01-09T00:23:37.703Z,50.75
2024-01-09T00:24:37.714Z,50.76
2024-01-09T00:25:37.748Z,50.73
2024-01-09T00:26:37.785Z,50.72
2024-01-09T00:27:37.832Z,50.74
2024-01-09T00:28:37.820Z,50.72
2024-01-09T00:29:37.899Z,50.75
2024-01-09T00:30:37.902Z,50.74
2024-01-09T00:31:37.970Z,50.70
2024-01-09T00:32:38.017Z,50.70
2024-01-09T00:33:38.253Z,50.68
2024-01-09T00:34:38.039Z,50.70
2024-01-09T00:35:38.091Z,50.69
2024-01-09T00:36:38.038Z,50.68
2024-01-09T00:37:38.102Z,50.66
2024-01-09T00:38:38.208Z,50.62
2024-01-09T00:39:38.126Z,50.61
2024-01-09T00:40:38.160Z,50.61
2024-01-09T00:41:38.196Z,50.61
2024-01-09T00:42:38.833Z,50.61
2024-01-09T00:43:38.251Z,50.62
2024-01-09T00:44:38.321Z,50.60
2024-01-09T00:45:39.518Z,50.57
2024-01-09T00:46:38.357Z,50.62
2024-01-09T00:47:38.521Z,50.56
2024-01-09T00:48:38.505Z,50.58
2024-01-09T00:49:38.531Z,50.55
2024-01-09T00:50:38.485Z,50.54
2024-01-09T00:51:38.492Z,50.53
2024-01-09T00:52:38.572Z,50.49
2024-01-09T00:53:38.576Z,50.47
2024-01-09T00:54:38.577Z,50.52
2024-01-09T00:55:38.614Z,50.51
2024-01-09T00:56:38.658Z,50.47
2024-01-09T00:57:38.653Z,50.50
2024-01-09T00:58:38.765Z,50.51
2024-01-09T00:59:38.800Z,50.50
2024-01-09T01:00:38.821Z,50.43
2024-01-09T01:01:38.771Z,50.47
2024-01-09T01:02:38.812Z,50.45
2024-01-09T01:03:38.872Z,50.41
2024-01-09T01:04:38.868Z,50.40
2024-01-09T01:05:38.993Z,50.42
2024-01-09T01:06:38.888Z,50.43
2024-01-09T01:07:38.902Z,50.39
2024-01-09T01:08:39.133Z,50.43
2024-01-09T01:09:38.971Z,50.38
2024-01-09T01:10:38.981Z,50.38
2024-01-09T01:11:39.063Z,50.36
2024-01-09T01:12:39.065Z,50.35
2024-01-09T01:13:39.060Z,50.42
2024-01-09T01:14:39.430Z,50.36
2024-01-09T01:15:39.112Z,50.35
2024-01-09T01:16:39.124Z,50.36
2024-01-09T01:17:39.264Z,50.35
2024-01-09T01:18:39.279Z,50.35
2024-01-09T01:19:39.233Z,50.37
2024-01-09T01:20:39.294Z,50.28
2024-01-09T01:21:39.263Z,50.33
2024-01-09T01:22:39.277Z,50.28
2024-01-09T01:23:39.364Z,50.37
2024-01-09T01:24:39.337Z,50.29
2024-01-09T01:25:39.356Z,50.31
2024-01-09T01:26:39.397Z,50.28
2024-01-09T01:27:39.403Z,50.29
2024-01-09T01:28:39.433Z,50.25
2024-01-09T01:29:39.522Z,50.29
2024-01-09T01:30:39.515Z,50.25
2024-01-09T01:31:39.497Z,50.27
2024-01-09T01:32:39.598Z,50.23
2024-01-09T01:33:39.607Z,50.21
2024-01-09T01:34:39.805Z,50.20
2024-01-09T01:35:39.676Z,50.19
2024-01-09T01:36:39.624Z,50.20
2024-01-09T01:37:39.708Z,50.19
2024-01-09T01:38:39.679Z,50.22
2024-01-09T01:39:39.671Z,50.21
2024-01-09T01:40:39.720Z,50.19
2024-01-09T01:41:39.714Z,50.18
2024-01-09T01:42:39.731Z,50.14
2024-01-09T01:43:39.756Z,50.19
2024-01-09T01:44:39.827Z,50.13
2024-01-09T01:45:39.862Z,50.14
2024-01-09T01:46:39.823Z,50.11
2024-01-09T01:47:39.979Z,50.09
2024-01-09T01:48:39.970Z,50.11
2024-01-09T01:49:39.899Z,50.07
2024-01-09T01:50:39.940Z,50.09
2024-01-09T01:51:39.935Z,50.08
2024-01-09T01:52:39.965Z,50.04
2024-01-09T01:53:40.056Z,50.09
2024-01-09T01:54:40.010Z,50.04
2024-01-09T01:55:40.025Z,50.01
2024-01-09T01:56:40.157Z,50.00
2024-01-09T01:57:40.074Z,49.99
2024-01-09T01:58:40.102Z,50.00
2024-01-09T01:59:40.188Z,50.02
2024-01-09T02:00:40.186Z,50.05
2024-01-09T02:01:40.256Z,49.99
2024-01-09T02:02:40.287Z,49.98
2024-01-09T02:03:40.263Z,50.00
2024-01-09T02:04:40.266Z,49.99
2024-01-09T02:05:40.352Z,49.96
2024-01-09T02:06:40.322Z,49.95
2024-01-09T02:07:40.347Z,49.92
2024-01-09T02:08:40.430Z,49.94
2024-01-09T02:09:40.485Z,49.92
2024-01-09T02:10:40.455Z,49.88
2024-01-09T02:11:40.576Z,49.95
2024-01-09T02:12:40.489Z,49.96
2024-01-09T02:13:40.530Z,49.93
2024-01-09T02:14:40.640Z,49.93
2024-01-09T02:15:40.580Z,49.93
2024-01-09T02:16:40.625Z,49.89
2024-01-09T02:17:40.712Z,49.87
2024-01-09T02:18:40.685Z,49.88
2024-01-09T02:19:40.948Z,49.81
2024-01-09T02:20:40.736Z,49.86
2024-01-09T02:21:40.735Z,49.83
2024-01-09T02:22:40.748Z,49.84
2024-01-09T02:23:40.824Z,49.84
2024-01-09T02:24:40.796Z,49.83
2024-01-09T02:25:40.846Z,49.85
2024-01-09T02:26:54.381Z,49.83
2024-01-09T02:27:41.900Z,49.82
2024-01-09T02:28:40.813Z,49.79
2024-01-09T02:29:40.805Z,49.75
2024-01-09T02:30:40.849Z,49.74
2024-01-09T02:31:40.800Z,49.75
2024-01-09T02:32:40.913Z,49.65
2024-01-09T02:33:40.897Z,49.74
2024-01-09T02:34:40.878Z,49.68
2024-01-09T02:35:40.791Z,49.67
2024-01-09T02:36:40.800Z,49.65
2024-01-09T02:37:40.797Z,49.61
2024-01-09T02:38:40.838Z,49.66
2024-01-09T02:39:40.795Z,49.64
2024-01-09T02:40:40.800Z,49.60
2024-01-09T02:41:40.819Z,49.60
2024-01-09T02:42:40.798Z,49.53
2024-01-09T02:43:40.788Z,49.59
2024-01-09T02:44:40.886Z,49.55
2024-01-09T02:45:40.773Z,49.56
2024-01-09T02:46:40.752Z,49.53
2024-01-09T02:47:41.451Z,49.51
2024-01-09T02:48:40.905Z,49.49
2024-01-09T02:49:40.844Z,49.46
2024-01-09T02:50:40.848Z,49.50
2024-01-09T02:51:40.739Z,49.47
2024-01-09T02:52:40.743Z,49.43
2024-01-09T02:53:40.777Z,49.39
2024-01-09T02:54:40.738Z,49.39
2024-01-09T02:55:40.724Z,49.39
2024-01-09T02:56:40.754Z,49.39
2024-01-09T02:57:40.724Z,49.35
2024-01-09T02:58:40.690Z,49.37
2024-01-09T02:59:40.766Z,49.37
2024-01-09T03:00:40.758Z,49.32
2024-01-09T03:01:41.402Z,49.33
2024-01-09T03:02:40.788Z,49.31
2024-01-09T03:03:40.883Z,49.31
2024-01-09T03:04:40.786Z,49.26
2024-01-09T03:05:40.911Z,49.26
2024-01-09T03:06:41.044Z,49.27
2024-01-09T03:07:41.028Z,49.22
2024-01-09T03:08:41.073Z,49.19
2024-01-09T03:09:41.028Z,49.23
2024-01-09T03:10:41.093Z,49.21
2024-01-09T03:11:41.238Z,49.19
2024-01-09T03:12:41.197Z,49.21
2024-01-09T03:13:41.207Z,49.15
2024-01-09T03:14:41.356Z,49.16
2024-01-09T03:15:41.294Z,49.17
2024-01-09T03:16:41.311Z,49.14
2024-01-09T03:17:41.519Z,49.16
2024-01-09T03:18:41.445Z,49.10
2024-01-09T03:19:41.394Z,49.11
2024-01-09T03:20:41.462Z,49.11
2024-01-09T03:21:41.470Z,49.07
2024-01-09T03:22:41.515Z,49.08
2024-01-09T03:23:41.701Z,49.07
2024-01-09T03:24:41.644Z,49.09
2024-01-09T03:25:41.773Z,49.04
2024-01-09T03:26:41.839Z,49.02
2024-01-09T03:27:41.789Z,49.02
2024-01-09T03:28:41.834Z,49.04
2024-01-09T03:29:41.964Z,48.99
2024-01-09T03:30:42.032Z,48.99
2024-01-09T03:31:42.002Z,48.98
2024-01-09T03:32:42.253Z,48.97
2024-01-09T03:33:42.241Z,48.96
2024-01-09T03:34:43.427Z,48.97
2024-01-09T03:35:42.251Z,48.97
2024-01-09T03:36:42.285Z,48.92
2024-01-09T03:37:42.326Z,48.92
2024-01-09T03:38:42.446Z,48.92
2024-01-09T03:39:42.444Z,48.90
2024-01-09T03:40:42.541Z,48.90
2024-01-09T03:41:42.588Z,48.94
2024-01-09T03:42:42.586Z,48.86
2024-01-09T03:43:42.665Z,48.85
2024-01-09T03:44:42.813Z,48.84
2024-01-09T03:45:42.801Z,48.85
2024-01-09T03:46:42.842Z,48.82
2024-01-09T03:47:42.985Z,48.78
2024-01-09T03:48:43.045Z,48.82
2024-01-09T03:49:42.996Z,48.77
2024-01-09T03:50:43.496Z,48.77
2024-01-09T03:51:43.913Z,48.76
2024-01-09T03:52:43.159Z,48.73
2024-01-09T03:53:43.420Z,48.73
2024-01-09T03:54:43.273Z,48.70
2024-01-09T03:55:43.324Z,48.72
2024-01-09T03:56:43.406Z,48.70
2024-01-09T03:57:43.441Z,48.72
2024-01-09T03:58:43.577Z,48.67
2024-01-09T03:59:43.577Z,48.65
2024-01-09T04:00:43.666Z,48.67
2024-01-09T04:01:43.658Z,48.66
2024-01-09T04:02:43.776Z,48.69
2024-01-09T04:03:43.858Z,48.66
2024-01-09T04:04:43.825Z,48.65
2024-01-09T04:05:43.945Z,48.68
2024-01-09T04:06:44.057Z,48.65
2024-01-09T04:07:44.016Z,48.65
2024-01-09T04:08:44.208Z,48.63
2024-01-09T04:09:44.125Z,48.62
2024-01-09T04:10:44.185Z,48.54
2024-01-09T04:11:44.310Z,48.59
2024-01-09T04:12:44.266Z,48.59
2024-01-09T04:13:44.343Z,48.57
2024-01-09T04:14:44.385Z,48.54
2024-01-09T04:15:44.430Z,48.54
2024-01-09T04:16:44.480Z,48.52
2024-01-09T04:17:44.677Z,48.50
2024-01-09T04:18:44.699Z,48.49
2024-01-09T04:19:44.691Z,48.50
2024-01-09T04:20:44.757Z,48.50
2024-01-09T04:21:44.750Z,48.49
2024-01-09T04:22:45.411Z,48.51
2024-01-09T04:23:44.923Z,48.49
2024-01-09T04:24:45.071Z,48.51
2024-01-09T04:25:44.999Z,48.52
2024-01-09T04:26:45.120Z,48.48
2024-01-09T04:27:45.083Z,48.50
2024-01-09T04:28:45.159Z,48.50
2024-01-09T04:29:45.228Z,48.45
2024-01-09T04:30:45.292Z,48.50
2024-01-09T04:31:45.393Z,48.46
2024-01-09T04:32:45.456Z,48.49
2024-01-09T04:33:45.487Z,48.45
2024-01-09T04:34:45.472Z,48.48
2024-01-09T04:35:45.963Z,48.46
2024-01-09T04:36:45.563Z,48.45
2024-01-09T04:37:45.612Z,48.46
2024-01-09T04:38:46.020Z,48.44
2024-01-09T04:39:45.716Z,48.39
2024-01-09T04:40:45.764Z,48.45
2024-01-09T04:41:45.895Z,48.42
2024-01-09T04:42:46.412Z,48.41
2024-01-09T04:43:45.915Z,48.42
2024-01-09T04:44:46.060Z,48.41
2024-01-09T04:45:46.087Z,48.45
2024-01-09T04:46:46.128Z,48.41
2024-01-09T04:47:46.251Z,48.38
2024-01-09T04:48:46.354Z,48.37
2024-01-09T04:49:46.231Z,48.41
2024-01-09T04:50:46.329Z,48.37
2024-01-09T04:51:46.339Z,48.31
2024-01-09T04:52:46.391Z,48.32
2024-01-09T04:53:46.515Z,48.30
2024-01-09T04:54:46.478Z,48.35
2024-01-09T04:55:46.541Z,48.31
2024-01-09T04:56:56.640Z,48.41
2024-01-09T04:57:53.911Z,48.32
2024-01-09T04:58:53.929Z,48.34
2024-01-09T04:59:53.995Z,48.32
2024-01-09T05:00:53.976Z,48.28
2024-01-09T05:01:54.000Z,48.25
2024-01-09T05:02:54.239Z,48.26
2024-01-09T05:03:54.098Z,48.21
2024-01-09T05:04:54.070Z,48.24
2024-01-09T05:05:54.520Z,48.21
2024-01-09T05:06:54.088Z,48.24
2024-01-09T05:07:54.112Z,48.19
2024-01-09T05:08:54.153Z,48.18
2024-01-09T05:09:54.149Z,48.19
2024-01-09T05:10:54.184Z,48.22
2024-01-09T05:11:54.242Z,48.13
2024-01-09T05:12:54.215Z,48.18
2024-01-09T05:13:54.244Z,48.14
2024-01-09T05:14:54.335Z,48.13
2024-01-09T05:15:54.283Z,48.16
2024-01-09T05:16:54.317Z,48.18
2024-01-09T05:17:54.405Z,48.12
2024-01-09T05:18:54.492Z,48.16
2024-01-09T05:19:57.131Z,48.12
2024-01-09T05:20:54.474Z,48.13
2024-01-09T05:21:54.442Z,48.12
2024-01-09T05:22:54.431Z,48.10
2024-01-09T05:23:54.497Z,48.10
2024-01-09T05:24:54.484Z,48.12
2024-01-09T05:25:54.513Z,48.11
2024-01-09T05:26:54.632Z,48.11
2024-01-09T05:27:54.541Z,48.08
2024-01-09T05:28:54.558Z,48.09
2024-01-09T05:29:54.637Z,48.08
2024-01-09T05:30:54.660Z,48.02
2024-01-09T05:31:54.768Z,48.07
2024-01-09T05:32:55.661Z,48.07
2024-01-09T05:33:54.680Z,48.03
2024-01-09T05:34:54.760Z,48.05
2024-01-09T05:35:54.682Z,48.06
2024-01-09T05:36:54.706Z,48.02
2024-01-09T05:37:58.703Z,48.00
2024-01-09T05:38:55.885Z,47.96
2024-01-09T05:39:54.876Z,48.00
2024-01-09T05:40:54.793Z,47.96
2024-01-09T05:41:54.832Z,47.99
2024-01-09T05:42:54.821Z,47.93
2024-01-09T05:43:54.856Z,47.92
2024-01-09T05:44:54.881Z,47.93
2024-01-09T05:45:54.915Z,47.95
2024-01-09T05:46:55.086Z,47.92
2024-01-09T05:47:55.057Z,47.93
2024-01-09T05:48:55.175Z,47.97
2024-01-09T05:49:55.059Z,47.91
2024-01-09T05:50:55.195Z,47.92
2024-01-09T05:51:55.030Z,47.89
2024-01-09T05:52:55.036Z,47.90
2024-01-09T05:53:55.248Z,47.92
2024-01-09T05:54:55.133Z,47.91
2024-01-09T05:55:55.161Z,47.88
2024-01-09T05:56:55.285Z,47.88
2024-01-09T05:57:55.187Z,47.85
2024-01-09T05:58:55.166Z,47.89
2024-01-09T05:59:55.215Z,47.84
2024-01-09T06:00:55.525Z,47.88
2024-01-09T06:01:55.265Z,47.83
2024-01-09T06:02:55.350Z,47.88
2024-01-09T06:03:55.414Z,47.83
2024-01-09T06:04:55.425Z,47.80
2024-01-09T06:05:55.585Z,47.81
2024-01-09T06:06:55.570Z,47.82
2024-01-09T06:07:55.543Z,47.80
2024-01-09T06:08:55.704Z,47.76
2024-01-09T06:09:55.637Z,47.79
2024-01-09T06:10:55.672Z,47.75
2024-01-09T06:11:55.736Z,47.82
2024-01-09T06:12:55.750Z,47.78
2024-01-09T06:13:55.802Z,47.77
2024-01-09T06:14:56.558Z,47.72
2024-01-09T06:15:55.878Z,47.74
2024-01-09T06:16:55.897Z,47.74
2024-01-09T06:17:56.082Z,47.65
2024-01-09T06:18:56.253Z,47.36
2024-01-09T06:19:56.060Z,47.47
2024-01-09T06:20:56.153Z,47.57
2024-01-09T06:21:56.111Z,47.54
2024-01-09T06:22:56.168Z,47.50
2024-01-09T06:23:56.320Z,47.19
2024-01-09T06:24:56.265Z,47.60
2024-01-09T06:25:56.300Z,47.69
2024-01-09T06:26:56.378Z,47.78
2024-01-09T06:27:56.401Z,48.00
2024-01-09T06:28:56.406Z,48.15
2024-01-09T06:29:56.487Z,48.57
2024-01-09T06:30:56.521Z,48.43
2024-01-09T06:31:56.520Z,48.65
2024-01-09T06:32:56.666Z,49.05
2024-01-09T06:33:57.652Z,49.28
2024-01-09T06:34:56.605Z,49.58
2024-01-09T06:35:56.836Z,49.82
2024-01-09T06:36:57.584Z,49.92
2024-01-09T06:37:56.861Z,50.20
2024-01-09T06:38:57.064Z,50.37
2024-01-09T06:39:57.014Z,50.63
2024-01-09T06:40:57.089Z,50.79
2024-01-09T06:41:57.225Z,50.97
2024-01-09T06:42:57.281Z,51.06
2024-01-09T06:43:57.293Z,51.31
2024-01-09T06:44:57.518Z,51.39
2024-01-09T06:45:57.411Z,51.53
2024-01-09T06:46:57.461Z,51.77
2024-01-09T06:47:57.650Z,51.85
2024-01-09T06:48:58.638Z,52.16
2024-01-09T06:49:57.696Z,52.18
2024-01-09T06:50:57.694Z,52.48
2024-01-09T06:51:57.707Z,52.39
2024-01-09T06:52:57.735Z,52.62
2024-01-09T06:53:57.833Z,52.76
2024-01-09T06:54:57.845Z,52.94
2024-01-09T06:55:57.877Z,53.09
2024-01-09T06:56:57.963Z,53.35
2024-01-09T06:57:57.965Z,53.35
2024-01-09T06:58:58.042Z,53.46
2024-01-09T06:59:58.099Z,53.47
2024-01-09T07:00:58.188Z,53.64
2024-01-09T07:01:58.150Z,53.86
2024-01-09T07:02:58.359Z,54.05
2024-01-09T07:03:58.407Z,54.29
2024-01-09T07:04:58.353Z,54.32
2024-01-09T07:05:58.376Z,54.48
2024-01-09T07:07:00.530Z,54.59
2024-01-09T07:07:58.333Z,54.68
2024-01-09T07:08:58.467Z,54.88
2024-01-09T07:09:58.368Z,54.90
2024-01-09T07:10:59.019Z,55.16
2024-01-09T07:11:58.531Z,55.24
2024-01-09T07:12:58.372Z,55.26
2024-01-09T07:13:59.029Z,55.49
2024-01-09T07:14:58.481Z,55.54
2024-01-09T07:15:58.379Z,55.53
2024-01-09T07:16:58.946Z,55.93
2024-01-09T07:17:59.161Z,55.96
2024-01-09T07:18:58.507Z,56.17
2024-01-09T07:19:58.412Z,56.20
2024-01-09T07:20:58.549Z,56.27
2024-01-09T07:21:58.490Z,55.81
2024-01-09T07:23:05.064Z,55.75
2024-01-09T07:23:59.631Z,55.80
2024-01-09T07:24:59.523Z,55.53
2024-01-09T07:25:58.550Z,55.60
2024-01-09T07:26:58.581Z,55.62
2024-01-09T07:27:59.523Z,55.56
2024-01-09T07:29:00.577Z,55.74
2024-01-09T07:29:58.619Z,55.91
2024-01-09T07:30:58.618Z,56.12
2024-01-09T07:31:58.588Z,56.07
2024-01-09T07:32:58.737Z,55.97
2024-01-09T07:33:58.678Z,56.07
2024-01-09T07:34:58.619Z,56.04
2024-01-09T07:35:58.624Z,56.18
2024-01-09T07:36:58.575Z,56.18
2024-01-09T07:37:58.579Z,56.29
2024-01-09T07:38:58.658Z,56.27
2024-01-09T07:39:58.660Z,56.34
2024-01-09T07:41:00.780Z,56.45
2024-01-09T07:41:58.601Z,56.38
2024-01-09T07:43:01.060Z,56.34
2024-01-09T07:43:58.650Z,56.57
2024-01-09T07:44:58.631Z,56.59
2024-01-09T07:45:58.606Z,56.55
2024-01-09T07:46:58.602Z,56.75
2024-01-09T07:47:58.719Z,56.82
2024-01-09T07:48:58.705Z,56.84
2024-01-09T07:49:58.636Z,56.97
2024-01-09T07:50:58.696Z,56.98
2024-01-09T07:51:58.617Z,57.28
2024-01-09T07:52:58.918Z,57.19
2024-01-09T07:53:58.684Z,57.10
2024-01-09T07:54:58.638Z,57.06
2024-01-09T07:55:59.060Z,57.20
2024-01-09T07:56:58.691Z,57.15
2024-01-09T07:57:58.636Z,57.20
2024-01-09T07:58:58.637Z,57.21
2024-01-09T07:59:58.726Z,57.21
2024-01-09T08:00:58.685Z,57.17
2024-01-09T08:01:58.634Z,57.40
2024-01-09T08:02:58.802Z,57.48
2024-01-09T08:03:59.661Z,57.60
2024-01-09T08:04:58.633Z,57.57
2024-01-09T08:05:58.714Z,57.86
2024-01-09T08:06:58.694Z,57.68
2024-01-09T08:07:58.626Z,57.82
2024-01-09T08:08:58.672Z,57.68
2024-01-09T08:09:58.617Z,57.70
2024-01-09T08:10:58.623Z,57.83
2024-01-09T08:11:58.708Z,58.02
2024-01-09T08:12:58.623Z,58.00
2024-01-09T08:13:58.624Z,57.87
2024-01-09T08:14:58.693Z,58.11
2024-01-09T08:15:58.677Z,57.93
2024-01-09T08:16:58.761Z,57.90
2024-01-09T08:17:58.832Z,57.55
2024-01-09T08:18:58.869Z,57.35
2024-01-09T08:19:58.913Z,57.23
2024-01-09T08:20:58.953Z,57.28
2024-01-09T08:21:58.881Z,57.30
2024-01-09T08:22:58.905Z,57.25
2024-01-09T08:23:58.981Z,57.41
2024-01-09T08:24:58.923Z,57.50
2024-01-09T08:25:58.966Z,57.74
2024-01-09T08:26:59.080Z,57.91
2024-01-09T08:27:59.071Z,58.09
2024-01-09T08:28:59.132Z,58.29
2024-01-09T08:29:59.267Z,58.43
2024-01-09T08:30:59.311Z,58.45
2024-01-09T08:31:59.332Z,58.66
2024-01-09T08:32:59.422Z,58.79
2024-01-09T08:33:59.523Z,58.95
2024-01-09T08:35:00.086Z,59.04
2024-01-09T08:36:01.125Z,59.31
2024-01-09T08:36:59.597Z,59.42
2024-01-09T08:37:59.703Z,59.48
2024-01-09T08:38:59.826Z,59.60
2024-01-09T08:39:59.880Z,59.64
2024-01-09T08:40:59.855Z,59.77
2024-01-09T08:41:59.966Z,59.86
2024-01-09T08:42:59.969Z,59.97
2024-01-09T08:44:00.038Z,60.13
2024-01-09T08:45:00.188Z,60.27
2024-01-09T08:46:00.185Z,60.29
2024-01-09T08:47:00.237Z,60.37
2024-01-09T08:48:00.458Z,60.60
2024-01-09T08:49:00.386Z,60.61
2024-01-09T08:50:00.455Z,60.75
2024-01-09T08:51:00.453Z,60.82
2024-01-09T08:52:00.483Z,60.98
2024-01-09T08:53:00.537Z,60.93
2024-01-09T08:54:00.755Z,61.01
2024-01-09T08:55:00.630Z,61.10
2024-01-09T08:56:01.069Z,61.09
2024-01-09T08:57:00.751Z,61.19
2024-01-09T08:58:00.782Z,61.34
2024-01-09T08:59:00.824Z,61.47
2024-01-09T09:00:00.950Z,61.47
2024-01-09T09:01:00.916Z,61.53
2024-01-09T09:02:01.016Z,61.50
2024-01-09T09:03:01.184Z,61.65
2024-01-09T09:04:58.771Z,61.97
2024-01-09T09:05:59.635Z,61.84
2024-01-09T09:06:58.833Z,62.04
2024-01-09T09:07:58.801Z,61.94
2024-01-09T09:08:58.767Z,62.08
2024-01-09T09:09:58.702Z,62.14
2024-01-09T09:10:59.594Z,62.07
2024-01-09T09:11:58.804Z,62.21
2024-01-09T09:12:58.689Z,61.14
2024-01-09T09:13:58.663Z,57.65
2024-01-09T09:14:58.743Z,58.04
2024-01-09T09:15:58.679Z,50.20
2024-01-09T09:16:58.668Z,52.77
2024-01-09T09:17:58.857Z,51.00
2024-01-09T09:18:58.875Z,50.88
2024-01-09T09:19:58.711Z,48.13
2024-01-09T09:20:58.809Z,46.10
2024-01-09T09:21:58.731Z,49.06
2024-01-09T09:22:58.750Z,49.35
2024-01-09T09:23:58.901Z,49.36
2024-01-09T09:24:58.787Z,49.81
2024-01-09T09:25:59.593Z,50.33
2024-01-09T09:26:58.942Z,50.24
2024-01-09T09:27:58.882Z,50.54
2024-01-09T09:29:04.354Z,51.08
2024-01-09T09:29:59.917Z,51.02
2024-01-09T09:30:59.123Z,51.17
2024-01-09T09:31:58.902Z,51.32
2024-01-09T09:32:59.047Z,51.46
2024-01-09T09:33:59.000Z,51.71
2024-01-09T09:34:58.952Z,51.66
2024-01-09T09:35:58.968Z,52.03
2024-01-09T09:36:58.897Z,52.23
2024-01-09T09:37:58.903Z,52.49
2024-01-09T09:38:58.933Z,52.70
2024-01-09T09:39:58.903Z,52.85
2024-01-09T09:40:58.906Z,53.06
2024-01-09T09:41:59.292Z,53.25
2024-01-09T09:42:59.023Z,53.46
2024-01-09T09:43:59.154Z,53.64
2024-01-09T09:44:59.186Z,53.84
2024-01-09T09:45:59.739Z,53.73
2024-01-09T09:46:59.180Z,53.81
2024-01-09T09:48:00.339Z,53.78
2024-01-09T09:48:59.380Z,53.96
2024-01-09T09:49:59.196Z,54.77
2024-01-09T09:50:59.206Z,54.42
2024-01-09T09:51:59.216Z,54.49
2024-01-09T09:52:59.137Z,54.53
2024-01-09T09:53:59.221Z,54.58
2024-01-09T09:54:59.106Z,54.76
2024-01-09T09:55:59.087Z,54.61
2024-01-09T09:56:59.195Z,54.69
2024-01-09T09:57:59.067Z,54.81
2024-01-09T09:58:59.041Z,54.85
2024-01-09T09:59:59.141Z,54.90
2024-01-09T10:00:59.041Z,55.33
2024-01-09T10:01:59.024Z,55.18
2024-01-09T10:02:59.041Z,55.29
2024-01-09T10:03:59.005Z,55.51
2024-01-09T10:04:58.938Z,55.61
2024-01-09T10:05:59.041Z,55.91
2024-01-09T10:06:59.469Z,55.91
2024-01-09T10:07:58.891Z,56.31
2024-01-09T10:08:59.132Z,56.32
2024-01-09T10:09:58.960Z,56.35
2024-01-09T10:10:58.994Z,56.54
2024-01-09T10:11:59.089Z,56.51
2024-01-09T10:12:59.089Z,56.63
2024-01-09T10:13:59.209Z,56.54
2024-01-09T10:14:59.229Z,57.23
2024-01-09T10:15:59.281Z,57.02
2024-01-09T10:16:59.220Z,55.96
2024-01-09T10:17:59.421Z,56.01
2024-01-09T10:18:59.460Z,55.94
2024-01-09T10:19:59.381Z,55.82
2024-01-09T10:20:59.441Z,55.86
2024-01-09T10:21:59.428Z,55.85
2024-01-09T10:22:59.475Z,55.81
2024-01-09T10:23:59.927Z,55.74
2024-01-09T10:24:59.562Z,55.80
2024-01-09T10:25:59.604Z,55.82
2024-01-09T10:26:59.686Z,55.85
2024-01-09T10:27:59.680Z,55.86
2024-01-09T10:28:59.730Z,55.88
2024-01-09T10:29:59.817Z,55.88
2024-01-09T10:30:59.835Z,55.88
2024-01-09T10:31:59.873Z,55.95
2024-01-09T10:32:59.912Z,55.87
2024-01-09T10:33:59.930Z,55.88
2024-01-09T10:34:59.882Z,55.89
2024-01-09T10:36:00.575Z,55.89
2024-01-09T10:36:59.918Z,55.91
2024-01-09T10:38:00.913Z,55.93
2024-01-09T10:38:59.991Z,55.89
2024-01-09T10:40:00.050Z,55.82
2024-01-09T10:41:00.036Z,55.85
2024-01-09T10:42:00.124Z,55.88
2024-01-09T10:43:00.142Z,55.81
2024-01-09T10:44:00.096Z,55.76
2024-01-09T10:45:00.201Z,55.71
2024-01-09T10:46:00.204Z,55.69
2024-01-09T10:47:00.165Z,55.70
2024-01-09T10:48:00.249Z,55.68
2024-01-09T10:49:00.301Z,55.64
2024-01-09T10:50:00.412Z,55.59
2024-01-09T10:51:00.361Z,55.58
2024-01-09T10:52:00.273Z,55.58
2024-01-09T10:53:00.925Z,55.60
2024-01-09T10:54:00.433Z,55.58
2024-01-09T10:55:00.400Z,55.53
2024-01-09T10:56:00.458Z,55.51
2024-01-09T10:57:00.487Z,55.49
2024-01-09T10:58:00.523Z,55.47
2024-01-09T10:59:00.560Z,55.48
2024-01-09T11:00:01.658Z,55.40
2024-01-09T11:01:00.633Z,55.41
2024-01-09T11:02:00.657Z,55.35
2024-01-09T11:03:00.728Z,55.30
2024-01-09T11:04:00.790Z,55.26
2024-01-09T11:05:01.467Z,55.23
2024-01-09T11:06:01.263Z,55.17
2024-01-09T11:07:00.765Z,55.13
2024-01-09T11:08:00.772Z,55.14
2024-01-09T11:09:00.833Z,55.06
2024-01-09T11:10:00.712Z,54.96
2024-01-09T11:11:00.731Z,54.90
2024-01-09T11:12:00.798Z,54.90
2024-01-09T11:13:00.712Z,54.86
2024-01-09T11:14:00.687Z,54.76
2024-01-09T11:15:02.539Z,54.79
2024-01-09T11:16:00.660Z,54.70
2024-01-09T11:17:00.642Z,54.60
2024-01-09T11:18:00.743Z,54.48
2024-01-09T11:19:01.479Z,54.41
2024-01-09T11:20:00.725Z,54.37
2024-01-09T11:21:00.726Z,54.34
2024-01-09T11:22:00.683Z,54.25
2024-01-09T11:23:00.699Z,54.23
2024-01-09T11:24:00.873Z,54.22
2024-01-09T11:25:00.645Z,54.11
2024-01-09T11:26:00.635Z,54.05
2024-01-09T11:27:00.675Z,54.09
2024-01-09T11:28:00.647Z,54.03
2024-01-09T11:29:00.780Z,53.94
2024-01-09T11:30:00.717Z,53.94
2024-01-09T11:31:00.679Z,53.92
2024-01-09T11:32:01.439Z,53.87
2024-01-09T11:33:01.537Z,53.87
2024-01-09T11:34:00.707Z,53.81
2024-01-09T11:35:00.612Z,53.78
2024-01-09T11:36:01.015Z,53.75
2024-01-09T11:37:00.591Z,53.71
2024-01-09T11:38:00.613Z,53.66
2024-01-09T11:39:00.659Z,53.67
2024-01-09T11:40:00.572Z,53.61
2024-01-09T11:41:00.585Z,53.59
2024-01-09T11:42:00.668Z,53.51
2024-01-09T11:43:00.585Z,53.52
2024-01-09T11:44:00.626Z,53.53
2024-01-09T11:45:00.774Z,53.44
2024-01-09T11:46:00.612Z,53.43
2024-01-09T11:47:00.628Z,53.39
2024-01-09T11:48:00.738Z,53.33
2024-01-09T11:49:00.706Z,53.29
2024-01-09T11:50:01.499Z,53.29
2024-01-09T11:51:01.429Z,53.24
2024-01-09T11:52:00.643Z,53.23
2024-01-09T11:53:00.638Z,53.18
2024-01-09T11:54:00.701Z,53.09
2024-01-09T11:55:00.727Z,53.02
2024-01-09T11:56:00.738Z,53.00
2024-01-09T11:57:00.923Z,52.98
2024-01-09T11:58:00.681Z,52.90
2024-01-09T11:59:00.674Z,52.89
2024-01-09T12:00:01.184Z,52.87
2024-01-09T12:01:00.697Z,52.82
2024-01-09T12:02:00.671Z,52.79
2024-01-09T12:03:00.714Z,52.74
2024-01-09T12:04:00.850Z,52.70
2024-01-09T12:05:01.522Z,52.69
2024-01-09T12:06:00.815Z,52.60
2024-01-09T12:07:00.713Z,52.51
2024-01-09T12:08:00.656Z,52.47
2024-01-09T12:09:01.357Z,52.45
2024-01-09T12:10:00.762Z,52.34
2024-01-09T12:11:01.452Z,52.30
2024-01-09T12:12:00.823Z,52.18
2024-01-09T12:13:00.584Z,52.18
2024-01-09T12:14:00.652Z,52.10
2024-01-09T12:15:00.702Z,52.10
2024-01-09T12:16:00.546Z,52.05
2024-01-09T12:17:00.532Z,52.03
2024-01-09T12:18:00.635Z,52.01
2024-01-09T12:19:01.041Z,51.92
2024-01-09T12:20:00.517Z,51.88
2024-01-09T12:21:00.674Z,51.86
2024-01-09T12:22:00.461Z,51.83
2024-01-09T12:23:00.502Z,51.84
2024-01-09T12:25:00.476Z,51.73
2024-01-09T12:26:00.351Z,51.68
2024-01-09T12:27:00.386Z,51.65
2024-01-09T12:28:00.363Z,51.64
2024-01-09T12:29:00.280Z,51.63
2024-01-09T12:30:00.348Z,51.55
2024-01-09T12:31:01.723Z,51.56
2024-01-09T12:32:00.278Z,51.53
2024-01-09T12:33:00.393Z,51.53
2024-01-09T12:34:00.329Z,51.50
2024-01-09T12:35:00.207Z,51.45
2024-01-09T12:36:00.189Z,51.45
2024-01-09T12:37:02.865Z,51.36
2024-01-09T12:38:00.049Z,51.36
2024-01-09T12:39:00.110Z,51.37
2024-01-09T12:39:59.991Z,51.28
2024-01-09T12:40:59.962Z,51.30
2024-01-09T12:41:59.959Z,51.24
2024-01-09T12:43:02.298Z,51.21
2024-01-09T12:43:59.876Z,51.23
2024-01-09T12:44:59.873Z,51.15
2024-01-09T12:45:59.855Z,51.18
2024-01-09T12:46:59.972Z,51.14
2024-01-09T12:47:59.840Z,51.14
2024-01-09T12:49:02.881Z,51.13
2024-01-09T12:50:04.333Z,51.08
2024-01-09T12:51:00.692Z,51.00
2024-01-09T12:51:59.639Z,51.01
2024-01-09T12:53:00.500Z,51.03
2024-01-09T12:53:59.657Z,51.00
2024-01-09T12:55:03.434Z,50.97